Time;durP1;ratioP1;P1;durP2;ratioP2;P2;SDS_P1;SDS_P2;PMS_P1;PMS_P2;Temp;Humidity;BMP_temperature;BMP_pressure;BME280_temperature;BME280_humidity;BME280_pressure;Samples;Min_cycle;Max_cycle;Signal;HPM_P1;HPM_P2
2022/04/15 16:49:51;;;;;;;0.50;0.25;;;16.60;45.20;19.90;94371.00;;;;10555626;27;45161;-61
2022/04/15 17:00:50;;;;;;;0.63;0.40;;;17.40;42.70;19.60;94378.00;;;;10513154;28;45225;-66
2022/04/15 17:06:13;;;;;;;0.13;0.13;;;17.50;41.80;19.60;94383.00;;;;10513245;28;45024;-65
2022/04/15 17:11:35;;;;;;;0.70;0.28;;;17.50;42.00;19.60;94388.00;;;;10512757;28;45776;-65
2022/04/15 17:16:55;;;;;;;0.63;0.20;;;17.60;41.90;19.60;94369.00;;;;10512773;28;45689;-66
2022/04/15 17:22:17;;;;;;;1.02;0.38;;;17.60;41.80;19.60;94383.00;;;;10512793;28;45858;-66
2022/04/15 17:27:38;;;;;;;0.20;0.20;;;17.60;42.20;19.70;94377.00;;;;10512096;28;45173;-65
2022/04/15 17:32:59;;;;;;;0.25;0.20;;;17.60;42.00;19.70;94376.00;;;;10512800;28;45400;-66
2022/04/15 17:38:22;;;;;;;0.50;0.30;;;17.60;42.00;19.70;94377.00;;;;10511910;28;45198;-66
2022/04/15 17:43:43;;;;;;;0.45;0.30;;;17.60;42.00;19.60;94386.00;;;;10512289;28;45792;-67
2022/04/15 17:49:03;;;;;;;0.35;0.35;;;17.60;42.00;19.60;94386.00;;;;10511331;28;45089;-66
2022/04/15 17:54:25;;;;;;;1.00;0.35;;;17.60;42.00;19.60;94392.00;;;;10511866;28;45672;-65
2022/04/15 17:59:46;;;;;;;1.00;0.50;;;17.60;42.00;19.60;94398.00;;;;10491329;28;45145;-66
2022/04/15 18:05:08;;;;;;;0.93;0.30;;;17.50;42.20;19.60;94402.00;;;;10483373;28;45129;-67
2022/04/15 18:10:30;;;;;;;0.63;0.38;;;17.50;42.40;19.60;94407.00;;;;10483056;28;45792;-66
2022/04/15 18:15:50;;;;;;;0.57;0.30;;;17.50;42.40;19.60;94414.00;;;;10482890;28;45279;-65
2022/04/15 18:21:11;;;;;;;0.60;0.40;;;17.50;42.50;19.60;94404.00;;;;10482846;28;45480;-65
2022/04/15 18:26:33;;;;;;;1.23;0.40;;;17.50;42.50;19.60;94413.00;;;;10481987;28;45186;-65
2022/04/15 18:31:53;;;;;;;0.70;0.40;;;17.50;42.60;19.60;94420.00;;;;10482593;28;45179;-66
2022/04/15 18:37:14;;;;;;;1.08;0.60;;;17.50;42.70;19.60;94418.00;;;;10482163;28;45159;-65
2022/04/15 18:42:36;;;;;;;1.13;0.45;;;17.40;42.60;19.60;94433.00;;;;10482201;28;45127;-66
2022/04/15 18:52:34;;;;;;;1.70;0.50;;;17.50;42.60;19.50;94427.00;;;;10480895;28;45154;-66
2022/04/15 18:53:39;;;;;;;0.40;0.40;;;17.50;42.70;19.50;94440.00;;;;10480931;28;45125;-65
2022/04/15 18:59:02;;;;;;;0.98;0.57;;;17.50;42.70;19.50;94437.00;;;;10481491;28;45179;-66
2022/04/15 19:04:23;;;;;;;0.60;0.40;;;17.40;42.60;19.50;94442.00;;;;10481705;28;45292;-65
2022/04/15 19:09:44;;;;;;;0.70;0.57;;;17.40;42.60;19.50;94452.00;;;;10479791;28;45147;-65
2022/04/15 19:15:08;;;;;;;0.80;0.40;;;17.40;42.60;19.50;94454.00;;;;10481809;28;45309;-65
2022/04/15 19:20:28;;;;;;;0.47;0.45;;;17.40;42.90;19.50;94451.00;;;;10481091;28;45181;-66
2022/04/15 19:25:49;;;;;;;1.23;0.43;;;17.40;42.60;19.50;94438.00;;;;10480566;28;45203;-65
2022/04/15 19:31:12;;;;;;;0.60;0.45;;;17.40;42.80;19.50;94449.00;;;;10480278;28;45242;-65
2022/04/15 19:36:32;;;;;;;0.90;0.70;;;17.40;42.80;19.50;94462.00;;;;10480145;28;45154;-66
2022/04/15 19:41:53;;;;;;;0.55;0.50;;;17.40;42.90;19.40;94448.00;;;;10479694;28;45376;-66
2022/04/15 19:47:15;;;;;;;0.60;0.35;;;17.40;42.70;19.40;94467.00;;;;10479331;28;45183;-67
2022/04/15 19:52:36;;;;;;;0.88;0.57;;;17.40;42.70;19.40;94475.00;;;;10480046;28;45866;-66
2022/04/15 20:03:37;;;;;;;0.98;0.60;;;17.30;42.60;19.40;94469.00;;;;10479665;28;45107;-66
2022/04/15 20:08:59;;;;;;;0.50;0.50;;;17.30;42.50;19.40;94484.00;;;;10479051;28;45096;-66
2022/04/15 20:14:19;;;;;;;0.50;0.50;;;17.30;42.50;19.40;94474.00;;;;10479631;28;45238;-65
2022/04/15 20:19:41;;;;;;;0.70;0.60;;;17.30;42.50;19.40;94484.00;;;;10478433;28;45862;-69
2022/04/15 20:25:02;;;;;;;0.60;0.50;;;17.30;42.50;19.40;94499.00;;;;10476832;28;45671;-65
2022/04/15 20:30:23;;;;;;;0.73;0.43;;;17.30;42.50;19.30;94490.00;;;;10436716;28;45867;-65
2022/04/15 20:35:46;;;;;;;0.80;0.40;;;17.30;42.50;19.40;94492.00;;;;10436648;28;45288;-65
2022/04/15 20:41:07;;;;;;;0.50;0.50;;;17.20;42.50;19.30;94504.00;;;;10431233;28;45183;-67
2022/04/15 20:46:28;;;;;;;0.68;0.50;;;17.20;42.50;19.30;94506.00;;;;10435776;28;45777;-65
2022/04/15 20:51:50;;;;;;;0.77;0.52;;;17.20;42.50;19.30;94502.00;;;;10436256;28;45855;-64
2022/04/15 20:57:10;;;;;;;0.60;0.40;;;17.20;42.30;19.30;94503.00;;;;10435993;28;45228;-66
2022/04/15 21:02:31;;;;;;;0.73;0.55;;;17.20;42.50;19.30;94488.00;;;;10436140;28;45250;-66
2022/04/15 21:07:52;;;;;;;0.90;0.43;;;17.20;42.40;19.30;94493.00;;;;10435497;28;45144;-65
2022/04/15 21:13:13;;;;;;;0.68;0.55;;;17.20;42.20;19.30;94492.00;;;;10436102;28;45169;-65
2022/04/15 21:18:34;;;;;;;0.98;0.70;;;17.20;42.30;19.30;94493.00;;;;10435618;28;45117;-66
2022/04/15 21:23:56;;;;;;;0.50;0.50;;;17.20;42.30;19.30;94490.00;;;;10435849;28;45151;-65
2022/04/15 21:29:17;;;;;;;0.65;0.43;;;17.20;42.20;19.20;94496.00;;;;10435286;28;45172;-65
2022/04/15 21:34:43;;;;;;;0.90;0.40;;;17.20;42.20;19.20;94492.00;;;;10439892;28;45122;-66
2022/04/15 21:40:07;;;;;;;0.63;0.30;;;17.20;42.20;19.20;94489.00;;;;10442160;28;45668;-65
2022/04/15 21:45:28;;;;;;;0.60;0.40;;;17.20;42.20;19.20;94486.00;;;;10442195;28;45118;-66
2022/04/15 21:56:30;;;;;;;0.70;0.40;;;17.20;42.10;19.20;94500.00;;;;10441790;28;45104;-60
2022/04/15 22:01:51;;;;;;;0.43;0.40;;;17.10;42.00;19.20;94511.00;;;;10441387;28;45739;-61
2022/04/15 22:07:13;;;;;;;0.40;0.40;;;17.10;41.90;19.20;94501.00;;;;10441180;28;45669;-61
2022/04/15 22:12:35;;;;;;;0.70;0.40;;;17.10;41.90;19.20;94512.00;;;;10441350;28;45859;-60
2022/04/15 22:17:56;;;;;;;1.00;0.50;;;17.10;41.80;19.20;94501.00;;;;10440749;28;45119;-61
2022/04/15 22:23:17;;;;;;;0.70;0.50;;;17.10;41.70;19.20;94515.00;;;;10441154;28;45243;-62
2022/04/15 22:28:39;;;;;;;1.00;0.52;;;17.10;41.70;19.20;94513.00;;;;10440660;28;45681;-61
2022/04/15 22:34:00;;;;;;;0.98;0.57;;;17.10;41.60;19.10;94517.00;;;;10440608;28;45176;-60
2022/04/15 22:39:20;;;;;;;0.65;0.45;;;17.10;41.60;19.10;94523.00;;;;10440071;28;45848;-60
2022/04/15 22:44:43;;;;;;;0.60;0.40;;;17.10;41.50;19.10;94522.00;;;;10440389;28;45138;-62
2022/04/15 22:50:05;;;;;;;0.73;0.40;;;17.10;41.50;19.10;94533.00;;;;10439613;28;45291;-61
2022/04/15 23:01:07;;;;;;;0.50;0.30;;;17.00;41.30;19.10;94542.00;;;;10439637;28;45773;-61
2022/04/15 23:06:32;;;;;;;0.55;0.40;;;17.00;41.30;19.10;94530.00;;;;10439537;28;45117;-60
2022/04/15 23:11:52;;;;;;;0.65;0.38;;;17.00;41.30;19.10;94544.00;;;;10439403;28;45183;-61
2022/04/15 23:17:15;;;;;;;1.30;0.50;;;17.00;41.20;19.10;94543.00;;;;10439238;28;45172;-61
2022/04/15 23:22:37;;;;;;;0.43;0.30;;;17.00;41.20;19.10;94539.00;;;;10439177;28;45181;-61
2022/04/15 23:27:57;;;;;;;0.52;0.40;;;17.00;41.20;19.10;94548.00;;;;10438582;28;45175;-62
2022/04/15 23:33:19;;;;;;;0.50;0.38;;;17.00;41.80;19.10;94543.00;;;;10438901;28;45208;-60
2022/04/15 23:38:39;;;;;;;0.32;0.20;;;17.00;41.10;19.10;94533.00;;;;10438155;28;45794;-61
2022/04/15 23:44:00;;;;;;;0.30;0.30;;;17.00;41.10;19.00;94543.00;;;;10438442;28;45852;-60
2022/04/15 23:49:22;;;;;;;0.80;0.40;;;17.00;41.10;19.00;94540.00;;;;10437709;28;45576;-61
2022/04/15 23:54:43;;;;;;;0.80;0.50;;;17.00;41.10;19.00;94532.00;;;;10437844;28;45385;-61
